Bo'ness, United Kingdom
Current Conditions -  °F | °C
As of 1:20 AM on Saturday 20 Dec 2014 (Local Time) from EGPH Reporting Station
Scattered Clouds Scattered Clouds  
Wind Chill: 34°   Ceiling: Unl
Heat Index: 43°   Visibility: 6mi
Dew Point: 37°   Wind: 20mph
Humidity: 81%   Direction: 260°W
Pressure: 29.8"   Gusts: NA
Location:  56.02°N, 3.61°W
Report Text: EGPH 200120Z 26017KT 9999 FEW023 SCT044 06/03 Q1009
Loading
Personal Weather Stations






























Interactive Weather Map New forecast layout! Learn more

10-Day Weather Forecast

Advertisements
Track Severe Weather on mobile